createdAt,value
2019-06-20T00:01:18.944Z,1003.70
2019-06-20T00:02:18.851Z,1003.63
2019-06-20T00:04:10.626Z,1003.74
2019-06-20T00:05:10.553Z,1003.77
2019-06-20T00:07:02.459Z,1003.81
2019-06-20T00:08:02.325Z,1003.91
2019-06-20T00:09:54.078Z,1003.93
2019-06-20T00:10:54.065Z,1003.89
2019-06-20T00:12:59.480Z,1003.80
2019-06-20T00:13:45.862Z,1003.89
2019-06-20T00:15:37.798Z,1003.97
2019-06-20T00:16:37.595Z,1004.05
2019-06-20T00:18:29.378Z,1004.03
2019-06-20T00:19:29.343Z,1004.02
2019-06-20T00:21:21.227Z,1004.17
2019-06-20T00:22:21.497Z,1004.19
2019-06-20T00:24:13.020Z,1004.14
2019-06-20T00:25:12.861Z,1004.13
2019-06-20T00:27:04.742Z,1004.09
2019-06-20T00:28:04.567Z,1003.96
2019-06-20T00:29:56.360Z,1003.83
2019-06-20T00:30:56.285Z,1003.91
2019-06-20T00:32:48.072Z,1003.86
2019-06-20T00:33:48.060Z,1003.88
2019-06-20T00:35:39.859Z,1003.88
2019-06-20T00:36:39.828Z,1003.90
2019-06-20T00:38:31.558Z,1003.64
2019-06-20T00:39:31.499Z,1003.64
2019-06-20T00:41:23.414Z,1003.64
2019-06-20T00:42:23.330Z,1003.59
2019-06-20T00:44:15.168Z,1003.51
2019-06-20T00:45:15.069Z,1003.44
2019-06-20T00:47:07.088Z,1003.35
2019-06-20T00:48:06.968Z,1003.29
2019-06-20T00:49:58.739Z,1003.26
2019-06-20T00:50:58.679Z,1003.22
2019-06-20T00:52:50.541Z,1003.22
2019-06-20T00:53:50.464Z,1003.29
2019-06-20T00:55:42.351Z,1003.41
2019-06-20T00:56:42.338Z,1003.30
2019-06-20T00:58:34.073Z,1003.46
2019-06-20T00:59:34.022Z,1003.56
2019-06-20T01:01:25.804Z,1003.74
2019-06-20T01:02:25.721Z,1003.80
2019-06-20T01:04:17.510Z,1003.88
2019-06-20T01:05:17.478Z,1003.93
2019-06-20T01:07:09.269Z,1004.24
2019-06-20T01:08:09.183Z,1004.29
2019-06-20T01:10:00.983Z,1004.08
2019-06-20T01:11:00.923Z,1004.14
2019-06-20T01:12:52.899Z,1003.97
2019-06-20T01:13:53.033Z,1004.02
2019-06-20T01:15:44.619Z,1004.44
2019-06-20T01:16:44.520Z,1004.52
2019-06-20T01:18:37.386Z,1004.71
2019-06-20T01:19:37.387Z,1004.58
2019-06-20T01:21:30.215Z,1004.22
2019-06-20T01:22:30.131Z,1004.19
2019-06-20T01:24:21.950Z,1004.14
2019-06-20T01:25:21.890Z,1004.13
2019-06-20T01:27:14.788Z,1004.10
2019-06-20T01:28:14.638Z,1004.13
2019-06-20T01:30:06.436Z,1004.11
2019-06-20T01:31:06.353Z,1004.05
2019-06-20T01:32:58.260Z,1004.14
2019-06-20T01:33:58.213Z,1004.13
2019-06-20T01:35:49.992Z,1004.18
2019-06-20T01:36:49.922Z,1004.16
2019-06-20T01:38:41.766Z,1004.11
2019-06-20T01:39:41.717Z,1004.04
2019-06-20T01:41:33.420Z,1003.97
2019-06-20T01:42:33.347Z,1003.86
2019-06-20T01:44:25.106Z,1003.79
2019-06-20T01:45:25.056Z,1003.83
2019-06-20T01:47:16.864Z,1003.75
2019-06-20T01:48:16.774Z,1003.73
2019-06-20T01:50:09.540Z,1003.77
2019-06-20T01:51:09.502Z,1003.77
2019-06-20T01:53:02.316Z,1003.78
2019-06-20T01:55:07.307Z,1003.75
2019-06-20T01:56:07.256Z,1003.78
2019-06-20T01:57:59.044Z,1003.81
2019-06-20T01:58:58.983Z,1003.83
2019-06-20T02:00:50.840Z,1003.78
2019-06-20T02:01:50.743Z,1003.78
2019-06-20T02:03:42.550Z,1003.80
2019-06-20T02:04:42.520Z,1003.77
2019-06-20T02:06:34.259Z,1003.74
2019-06-20T02:07:34.236Z,1003.73
2019-06-20T02:09:25.970Z,1003.69
2019-06-20T02:10:25.903Z,1003.69
2019-06-20T02:12:17.703Z,1003.70
2019-06-20T02:13:17.637Z,1003.68
2019-06-20T02:15:09.721Z,1003.71
2019-06-20T02:16:09.646Z,1003.68
2019-06-20T02:18:01.674Z,1003.73
2019-06-20T02:19:01.480Z,1003.74
2019-06-20T02:20:53.344Z,1003.71
2019-06-20T02:21:53.200Z,1003.68
2019-06-20T02:23:46.272Z,1003.67
2019-06-20T02:24:46.154Z,1003.65
2019-06-20T02:26:37.930Z,1003.59
2019-06-20T02:27:37.850Z,1003.64
2019-06-20T02:29:29.668Z,1003.64
2019-06-20T02:30:29.603Z,1003.68
2019-06-20T02:32:21.474Z,1003.72
2019-06-20T02:33:21.330Z,1003.72
2019-06-20T02:35:13.353Z,1003.74
2019-06-20T02:36:13.284Z,1003.74
2019-06-20T02:38:05.113Z,1003.68
2019-06-20T02:39:05.006Z,1003.65
2019-06-20T02:40:56.837Z,1003.58
2019-06-20T02:41:56.790Z,1003.60
2019-06-20T02:43:48.575Z,1003.60
2019-06-20T02:44:48.478Z,1003.59
2019-06-20T02:46:40.543Z,1003.68
2019-06-20T02:47:40.200Z,1003.72
2019-06-20T02:49:31.981Z,1003.80
2019-06-20T02:50:31.933Z,1003.84
2019-06-20T02:52:23.812Z,1003.94
2019-06-20T02:53:23.725Z,1003.97
2019-06-20T02:55:15.533Z,1004.09
2019-06-20T02:56:15.491Z,1004.06
2019-06-20T02:58:07.286Z,1004.04
2019-06-20T02:59:07.198Z,1004.10
2019-06-20T03:00:59.046Z,1004.11
2019-06-20T03:01:58.996Z,1004.09
2019-06-20T03:03:50.872Z,1004.11
2019-06-20T03:04:51.100Z,1004.11
2019-06-20T03:06:42.528Z,1004.13
2019-06-20T03:07:42.469Z,1004.18
2019-06-20T03:09:34.255Z,1004.30
2019-06-20T03:10:34.194Z,1004.29
2019-06-20T03:12:26.155Z,1004.38
2019-06-20T03:13:25.964Z,1004.49
2019-06-20T03:15:17.742Z,1004.63
2019-06-20T03:16:17.713Z,1004.67
2019-06-20T03:18:09.572Z,1004.73
2019-06-20T03:19:09.503Z,1004.70
2019-06-20T03:21:01.381Z,1004.61
2019-06-20T03:22:01.415Z,1004.60
2019-06-20T03:23:53.163Z,1004.48
2019-06-20T03:24:53.064Z,1004.44
2019-06-20T03:26:44.887Z,1004.41
2019-06-20T03:27:44.819Z,1004.50
2019-06-20T03:29:36.682Z,1004.55
2019-06-20T03:30:36.575Z,1004.55
2019-06-20T03:32:28.558Z,1004.51
2019-06-20T03:33:28.449Z,1004.47
2019-06-20T03:35:20.280Z,1004.45
2019-06-20T03:36:20.176Z,1004.42
2019-06-20T03:38:12.186Z,1004.33
2019-06-20T03:39:12.076Z,1004.28
2019-06-20T03:41:03.848Z,1004.22
2019-06-20T03:42:03.782Z,1004.22
2019-06-20T03:43:58.818Z,1004.26
2019-06-20T03:45:02.306Z,1004.23
2019-06-20T03:46:47.415Z,1004.24
2019-06-20T03:47:47.334Z,1004.24
2019-06-20T03:49:39.148Z,1004.37
2019-06-20T03:50:39.083Z,1004.36
2019-06-20T03:52:31.021Z,1004.38
2019-06-20T03:53:30.869Z,1004.38
2019-06-20T03:55:22.645Z,1004.28
2019-06-20T03:56:22.637Z,1004.34
2019-06-20T03:58:14.405Z,1004.37
2019-06-20T03:59:14.325Z,1004.39
2019-06-20T04:01:06.213Z,1004.32
2019-06-20T04:02:06.136Z,1004.32
2019-06-20T04:03:57.954Z,1004.32
2019-06-20T04:04:57.869Z,1004.31
2019-06-20T04:06:49.713Z,1004.32
2019-06-20T04:07:49.660Z,1004.31
2019-06-20T04:09:41.546Z,1004.26
2019-06-20T04:10:41.454Z,1004.19
2019-06-20T04:12:33.221Z,1004.18
2019-06-20T04:13:33.158Z,1004.19
2019-06-20T04:15:25.590Z,1004.18
2019-06-20T04:16:25.417Z,1004.17
2019-06-20T04:18:17.196Z,1004.12
2019-06-20T04:19:17.115Z,1004.15
2019-06-20T04:21:08.956Z,1004.08
2019-06-20T04:22:08.837Z,1004.10
2019-06-20T04:24:00.687Z,1004.07
2019-06-20T04:25:00.618Z,1004.08
2019-06-20T04:26:52.510Z,1004.07
2019-06-20T04:27:52.416Z,1004.12
2019-06-20T04:29:44.261Z,1004.13
2019-06-20T04:30:44.182Z,1004.18
2019-06-20T04:32:36.441Z,1004.22
2019-06-20T04:33:36.159Z,1004.25
2019-06-20T04:35:27.970Z,1004.28
2019-06-20T04:36:27.896Z,1004.33
2019-06-20T04:38:19.850Z,1004.38
2019-06-20T04:39:19.861Z,1004.37
2019-06-20T04:41:11.702Z,1004.41
2019-06-20T04:42:11.658Z,1004.46
2019-06-20T04:44:04.732Z,1004.47
2019-06-20T04:45:04.620Z,1004.45
2019-06-20T04:46:56.569Z,1004.52
2019-06-20T04:47:56.465Z,1004.56
2019-06-20T04:49:48.440Z,1004.64
2019-06-20T04:50:48.313Z,1004.63
2019-06-20T04:52:40.262Z,1004.65
2019-06-20T04:53:40.193Z,1004.62
2019-06-20T04:55:35.518Z,1004.63
2019-06-20T04:56:31.949Z,1004.66
2019-06-20T04:58:23.866Z,1004.63
2019-06-20T04:59:23.786Z,1004.61
2019-06-20T05:01:15.586Z,1004.61
2019-06-20T05:02:15.542Z,1004.54
2019-06-20T05:04:08.915Z,1004.52
2019-06-20T05:05:08.311Z,1004.51
2019-06-20T05:07:00.227Z,1004.52
2019-06-20T05:08:00.173Z,1004.56
2019-06-20T05:09:51.968Z,1004.52
2019-06-20T05:10:51.896Z,1004.55
2019-06-20T05:12:43.747Z,1004.55
2019-06-20T05:13:43.640Z,1004.57
2019-06-20T05:15:51.129Z,1004.57
2019-06-20T05:16:35.507Z,1004.60
2019-06-20T05:18:27.344Z,1004.61
2019-06-20T05:19:27.292Z,1004.62
2019-06-20T05:21:22.282Z,1004.68
2019-06-20T05:22:19.040Z,1004.69
2019-06-20T05:24:11.038Z,1004.72
2019-06-20T05:25:10.988Z,1004.77
2019-06-20T05:27:02.852Z,1004.77
2019-06-20T05:28:02.733Z,1004.74
2019-06-20T05:29:54.493Z,1004.79
2019-06-20T05:30:54.430Z,1004.78
2019-06-20T05:32:46.376Z,1004.75
2019-06-20T05:33:46.256Z,1004.76
2019-06-20T05:35:38.231Z,1004.75
2019-06-20T05:36:38.140Z,1004.67
2019-06-20T05:38:30.064Z,1004.62
2019-06-20T05:39:29.891Z,1004.61
2019-06-20T05:41:21.809Z,1004.56
2019-06-20T05:42:21.694Z,1004.49
2019-06-20T05:44:13.530Z,1004.48
2019-06-20T05:45:13.457Z,1004.45
2019-06-20T05:47:12.503Z,1004.40
2019-06-20T05:48:05.280Z,1004.39
2019-06-20T05:49:57.201Z,1004.38
2019-06-20T05:50:57.183Z,1004.37
2019-06-20T05:52:48.898Z,1004.39
2019-06-20T05:53:48.875Z,1004.40
2019-06-20T05:55:40.690Z,1004.42
2019-06-20T05:56:40.615Z,1004.41
2019-06-20T05:58:32.942Z,1004.46
2019-06-20T05:59:32.402Z,1004.51
2019-06-20T06:01:24.265Z,1004.59
2019-06-20T06:02:24.172Z,1004.67
2019-06-20T06:04:16.049Z,1004.75
2019-06-20T06:05:15.962Z,1004.79
2019-06-20T06:07:07.847Z,1004.79
2019-06-20T06:08:07.746Z,1004.82
2019-06-20T06:10:03.733Z,1004.80
2019-06-20T06:10:59.475Z,1004.85
2019-06-20T06:12:51.343Z,1004.90
2019-06-20T06:13:51.265Z,1004.90
2019-06-20T06:15:43.083Z,1004.94
2019-06-20T06:16:44.239Z,1004.98
2019-06-20T06:18:34.934Z,1005.09
2019-06-20T06:19:34.887Z,1005.16
2019-06-20T06:21:26.836Z,1005.29
2019-06-20T06:22:26.691Z,1005.40
2019-06-20T06:24:18.503Z,1005.52
2019-06-20T06:25:18.448Z,1005.59
2019-06-20T06:27:10.357Z,1005.81
2019-06-20T06:28:12.467Z,1005.97
2019-06-20T06:30:04.139Z,1006.52
2019-06-20T06:31:04.077Z,1006.67
2019-06-20T06:32:55.898Z,1006.68
2019-06-20T06:33:55.828Z,1006.63
2019-06-20T06:35:47.756Z,1006.63
2019-06-20T06:36:47.656Z,1006.64
2019-06-20T06:38:39.685Z,1006.90
2019-06-20T06:39:43.268Z,1006.85
2019-06-20T06:41:31.165Z,1006.69
2019-06-20T06:42:31.094Z,1006.67
2019-06-20T06:44:22.936Z,1006.90
2019-06-20T06:45:22.840Z,1006.95
2019-06-20T06:47:14.707Z,1006.80
2019-06-20T06:48:14.581Z,1006.83
2019-06-20T06:50:06.405Z,1006.92
2019-06-20T06:51:06.298Z,1006.78
2019-06-20T06:52:58.436Z,1006.88
2019-06-20T06:53:58.754Z,1006.78
2019-06-20T06:55:50.547Z,1006.69
2019-06-20T06:56:50.425Z,1006.75
2019-06-20T06:58:42.265Z,1006.58
2019-06-20T06:59:42.220Z,1006.66
2019-06-20T07:01:34.126Z,1006.62
2019-06-20T07:02:34.029Z,1006.64
2019-06-20T07:04:25.971Z,1006.71
2019-06-20T07:05:25.859Z,1006.73
2019-06-20T07:07:17.706Z,1006.62
2019-06-20T07:08:17.646Z,1006.58
2019-06-20T07:10:09.412Z,1006.46
2019-06-20T07:11:09.333Z,1006.49
2019-06-20T07:13:01.144Z,1006.44
2019-06-20T07:14:01.081Z,1006.49
2019-06-20T07:15:52.888Z,1006.51
2019-06-20T07:17:00.152Z,1006.53
2019-06-20T07:18:44.710Z,1006.48
2019-06-20T07:19:44.626Z,1006.47
2019-06-20T07:21:36.586Z,1006.56
2019-06-20T07:22:36.382Z,1006.55
2019-06-20T07:24:28.187Z,1006.41
2019-06-20T07:25:28.179Z,1006.46
2019-06-20T07:27:19.888Z,1006.43
2019-06-20T07:28:19.810Z,1006.43
2019-06-20T07:30:11.730Z,1006.40
2019-06-20T07:31:11.538Z,1006.42
2019-06-20T07:33:26.893Z,1006.39
2019-06-20T07:34:27.273Z,1006.42
2019-06-20T07:36:20.241Z,1006.35
2019-06-20T07:37:19.952Z,1006.40
2019-06-20T07:39:12.878Z,1006.40
2019-06-20T07:40:12.816Z,1006.44
2019-06-20T07:42:06.752Z,1006.41
2019-06-20T07:43:06.656Z,1006.46
2019-06-20T07:44:59.571Z,1006.51
2019-06-20T07:46:03.010Z,1006.48
2019-06-20T07:47:52.444Z,1006.45
2019-06-20T07:48:52.377Z,1006.45
2019-06-20T07:50:45.242Z,1006.42
2019-06-20T07:51:45.173Z,1006.35
2019-06-20T07:53:38.210Z,1006.35
2019-06-20T07:54:38.042Z,1006.36
2019-06-20T07:56:30.912Z,1006.31
2019-06-20T07:57:30.837Z,1006.30
2019-06-20T07:59:23.795Z,1006.24
2019-06-20T08:00:23.708Z,1006.23
2019-06-20T08:02:16.544Z,1006.30
2019-06-20T08:03:16.563Z,1006.31
2019-06-20T08:05:09.523Z,1006.38
2019-06-20T08:06:09.477Z,1006.39
2019-06-20T08:08:02.315Z,1006.41
2019-06-20T08:09:02.231Z,1006.31
2019-06-20T08:10:55.156Z,1006.32
2019-06-20T08:11:55.107Z,1006.26
2019-06-20T08:13:48.006Z,1006.26
2019-06-20T08:14:47.969Z,1006.26
2019-06-20T08:16:40.958Z,1006.21
2019-06-20T08:17:41.217Z,1006.20
2019-06-20T08:19:33.639Z,1006.20
2019-06-20T08:20:33.552Z,1006.21
2019-06-20T08:22:26.469Z,1006.23
2019-06-20T08:23:26.337Z,1006.28
2019-06-20T08:25:19.291Z,1006.35
2019-06-20T08:26:19.179Z,1006.33
2019-06-20T08:28:12.008Z,1006.34
2019-06-20T08:29:20.821Z,1006.34
2019-06-20T08:31:04.917Z,1006.36
2019-06-20T08:32:04.834Z,1006.28
2019-06-20T08:33:59.230Z,1006.31
2019-06-20T08:34:59.067Z,1006.29
2019-06-20T08:36:50.548Z,1006.30
2019-06-20T08:37:50.470Z,1006.28
2019-06-20T08:39:43.495Z,1006.16
2019-06-20T08:40:43.425Z,1006.17
2019-06-20T08:42:36.504Z,1006.11
2019-06-20T08:43:36.411Z,1006.10
2019-06-20T08:45:30.122Z,1006.21
2019-06-20T08:46:30.058Z,1006.18
2019-06-20T08:48:23.634Z,1006.28
2019-06-20T08:49:23.015Z,1006.26
2019-06-20T08:51:16.343Z,1006.18
2019-06-20T08:52:16.246Z,1006.24
2019-06-20T08:54:09.110Z,1006.31
2019-06-20T08:55:09.003Z,1006.38
2019-06-20T08:57:03.550Z,1006.42
2019-06-20T08:58:03.287Z,1006.50
2019-06-20T08:59:55.990Z,1006.52
2019-06-20T09:00:55.972Z,1006.47
2019-06-20T09:02:47.632Z,1006.46
2019-06-20T09:03:47.558Z,1006.55
2019-06-20T09:05:40.711Z,1006.62
2019-06-20T09:06:40.616Z,1006.61
2019-06-20T09:08:33.460Z,1006.57
2019-06-20T09:09:33.334Z,1006.58
2019-06-20T09:11:26.269Z,1006.59
2019-06-20T09:12:26.144Z,1006.62
2019-06-20T09:14:18.994Z,1006.63
2019-06-20T09:15:18.925Z,1006.63
2019-06-20T09:17:11.843Z,1006.54
2019-06-20T09:18:11.758Z,1006.56
2019-06-20T09:20:04.864Z,1006.54
2019-06-20T09:21:04.770Z,1006.57
2019-06-20T09:22:58.910Z,1006.55
2019-06-20T09:23:58.286Z,1006.55
2019-06-20T09:25:52.336Z,1006.53
2019-06-20T09:26:52.413Z,1006.49
2019-06-20T09:28:44.197Z,1006.44
2019-06-20T09:29:44.090Z,1006.42
2019-06-20T09:31:37.243Z,1006.40
2019-06-20T09:32:37.123Z,1006.40
2019-06-20T09:34:30.068Z,1006.37
2019-06-20T09:35:30.006Z,1006.41
2019-06-20T09:37:22.889Z,1006.41
2019-06-20T09:38:22.807Z,1006.48
2019-06-20T09:40:15.684Z,1006.51
2019-06-20T09:41:15.698Z,1006.52
2019-06-20T09:43:08.436Z,1006.63
2019-06-20T09:44:08.367Z,1006.71
2019-06-20T09:46:02.367Z,1006.84
2019-06-20T09:47:02.433Z,1006.80
2019-06-20T09:48:55.574Z,1006.80
2019-06-20T09:49:56.029Z,1006.82
2019-06-20T09:51:48.596Z,1006.88
2019-06-20T09:52:49.791Z,1006.84
2019-06-20T09:54:39.902Z,1006.89
2019-06-20T09:55:39.835Z,1006.90
2019-06-20T09:57:32.871Z,1006.90
2019-06-20T09:58:32.667Z,1006.87
2019-06-20T10:00:25.680Z,1006.87
2019-06-20T10:01:25.416Z,1006.87
2019-06-20T10:03:18.293Z,1006.85
2019-06-20T10:04:21.449Z,1006.84
2019-06-20T10:06:14.364Z,1006.94
2019-06-20T10:07:10.988Z,1006.92
2019-06-20T10:09:03.831Z,1006.98
2019-06-20T10:10:03.800Z,1006.99
2019-06-20T10:11:56.747Z,1007.06
2019-06-20T10:12:56.687Z,1006.97
2019-06-20T10:14:49.642Z,1007.01
2019-06-20T10:15:49.605Z,1007.04
2019-06-20T10:17:42.837Z,1007.05
2019-06-20T10:18:42.417Z,1007.04
2019-06-20T10:20:38.535Z,1007.10
2019-06-20T10:21:35.206Z,1007.11
2019-06-20T10:23:28.359Z,1007.09
2019-06-20T10:24:28.266Z,1007.12
2019-06-20T10:26:21.101Z,1007.13
2019-06-20T10:27:21.035Z,1007.12
2019-06-20T10:29:13.946Z,1007.24
2019-06-20T10:30:14.804Z,1007.24
2019-06-20T10:32:06.710Z,1007.26
2019-06-20T10:33:06.661Z,1007.25
2019-06-20T10:34:59.550Z,1007.21
2019-06-20T10:35:59.486Z,1007.25
2019-06-20T10:37:52.957Z,1007.23
2019-06-20T10:38:52.626Z,1007.24
2019-06-20T10:40:46.344Z,1007.20
2019-06-20T10:41:46.656Z,1007.20
2019-06-20T10:43:37.887Z,1007.24
2019-06-20T10:44:37.820Z,1007.19
2019-06-20T10:46:30.688Z,1007.16
2019-06-20T10:47:35.042Z,1007.18
2019-06-20T10:49:23.414Z,1007.10
2019-06-20T10:50:23.307Z,1007.10
2019-06-20T10:52:16.277Z,1007.11
2019-06-20T10:53:16.226Z,1007.11
2019-06-20T10:55:09.178Z,1007.13
2019-06-20T10:56:09.084Z,1007.13
2019-06-20T10:58:02.035Z,1007.15
2019-06-20T10:59:01.983Z,1007.15
2019-06-20T11:00:54.962Z,1007.17
2019-06-20T11:01:54.883Z,1007.12
2019-06-20T11:03:47.841Z,1007.15
2019-06-20T11:04:47.777Z,1007.16
2019-06-20T11:06:41.649Z,1007.16
2019-06-20T11:07:42.082Z,1007.22
2019-06-20T11:09:33.684Z,1007.19
2019-06-20T11:10:33.629Z,1007.20
2019-06-20T11:12:26.582Z,1007.15
2019-06-20T11:13:26.502Z,1007.14
2019-06-20T11:15:19.548Z,1007.13
2019-06-20T11:16:19.462Z,1007.15
2019-06-20T11:18:12.527Z,1007.12
2019-06-20T11:19:12.484Z,1007.14
2019-06-20T11:21:05.289Z,1007.14
2019-06-20T11:22:05.197Z,1007.10
2019-06-20T11:23:58.127Z,1007.04
2019-06-20T11:24:58.120Z,1006.99
2019-06-20T11:26:50.872Z,1007.00
2019-06-20T11:27:50.843Z,1007.04
2019-06-20T11:29:44.117Z,1007.05
2019-06-20T11:30:55.322Z,1007.06
2019-06-20T11:32:36.584Z,1007.01
2019-06-20T11:33:38.237Z,1007.00
2019-06-20T11:35:29.359Z,1007.01
2019-06-20T11:36:29.307Z,1007.01
2019-06-20T11:38:22.100Z,1007.03
2019-06-20T11:39:22.015Z,1007.02
2019-06-20T11:41:15.060Z,1006.98
2019-06-20T11:42:14.896Z,1006.98
2019-06-20T11:44:08.007Z,1006.91
2019-06-20T11:45:07.859Z,1006.93
2019-06-20T11:47:00.812Z,1006.92
2019-06-20T11:48:00.744Z,1006.90
2019-06-20T11:49:53.580Z,1006.99
2019-06-20T11:50:53.514Z,1006.97
2019-06-20T11:52:46.405Z,1007.00
2019-06-20T11:53:46.382Z,1007.00
2019-06-20T11:55:39.408Z,1007.05
2019-06-20T11:56:39.244Z,1007.00
2019-06-20T11:58:32.004Z,1007.00
2019-06-20T11:59:31.946Z,1007.01
2019-06-20T12:01:32.921Z,1007.08
2019-06-20T12:02:24.729Z,1007.09
2019-06-20T12:04:17.929Z,1007.10
2019-06-20T12:05:17.537Z,1007.10
2019-06-20T12:07:10.669Z,1007.07
2019-06-20T12:08:10.528Z,1007.10
2019-06-20T12:10:03.327Z,1007.06
2019-06-20T12:11:03.234Z,1007.05
2019-06-20T12:12:56.064Z,1006.98
2019-06-20T12:13:56.000Z,1007.01
2019-06-20T12:15:49.094Z,1006.97
2019-06-20T12:16:48.823Z,1006.97
2019-06-20T12:18:43.052Z,1006.97
2019-06-20T12:19:42.465Z,1006.95
2019-06-20T12:21:34.708Z,1006.92
2019-06-20T12:22:34.550Z,1006.91
2019-06-20T12:24:27.387Z,1006.93
2019-06-20T12:25:27.139Z,1006.92
2019-06-20T12:27:20.063Z,1006.89
2019-06-20T12:28:19.949Z,1006.90
2019-06-20T12:30:12.998Z,1006.92
2019-06-20T12:31:19.472Z,1006.83
2019-06-20T12:33:05.895Z,1006.92
2019-06-20T12:34:06.464Z,1006.87
2019-06-20T12:35:58.749Z,1006.92
2019-06-20T12:36:58.696Z,1006.86
2019-06-20T12:38:51.643Z,1006.81
2019-06-20T12:39:51.497Z,1006.81
2019-06-20T12:41:45.515Z,1006.79
2019-06-20T12:42:44.888Z,1006.77
2019-06-20T12:44:38.498Z,1006.79
2019-06-20T12:45:38.219Z,1006.72
2019-06-20T12:47:30.117Z,1006.74
2019-06-20T12:48:30.187Z,1006.74
2019-06-20T12:50:22.962Z,1006.77
2019-06-20T12:51:22.821Z,1006.72
2019-06-20T12:53:15.800Z,1006.77
2019-06-20T12:54:15.816Z,1006.71
2019-06-20T12:56:08.805Z,1006.77
2019-06-20T12:57:08.544Z,1006.76
2019-06-20T12:59:01.448Z,1006.79
2019-06-20T13:00:01.328Z,1006.77
2019-06-20T13:01:54.150Z,1006.77
2019-06-20T13:02:54.068Z,1006.73
2019-06-20T13:04:46.894Z,1006.79
2019-06-20T13:05:47.150Z,1006.74
2019-06-20T13:07:40.702Z,1006.76
2019-06-20T13:08:40.691Z,1006.74
2019-06-20T13:10:32.724Z,1006.69
2019-06-20T13:11:32.626Z,1006.67
2019-06-20T13:13:25.625Z,1006.69
2019-06-20T13:14:25.520Z,1006.68
2019-06-20T13:16:18.395Z,1006.65
2019-06-20T13:17:18.298Z,1006.64
2019-06-20T13:19:11.252Z,1006.68
2019-06-20T13:20:11.199Z,1006.61
2019-06-20T13:22:04.119Z,1006.61
2019-06-20T13:23:04.034Z,1006.63
2019-06-20T13:24:57.202Z,1006.64
2019-06-20T13:25:56.845Z,1006.62
2019-06-20T13:27:50.626Z,1006.56
2019-06-20T13:29:03.251Z,1006.60
2019-06-20T13:30:46.863Z,1006.56
2019-06-20T13:31:58.421Z,1006.62
2019-06-20T13:33:35.892Z,1006.67
2019-06-20T13:34:35.761Z,1006.65
2019-06-20T13:36:28.806Z,1006.64
2019-06-20T13:37:28.749Z,1006.59
2019-06-20T13:39:22.352Z,1006.55
2019-06-20T13:40:22.186Z,1006.53
2019-06-20T13:42:15.072Z,1006.64
2019-06-20T13:43:15.307Z,1006.66
2019-06-20T13:45:13.325Z,1006.74
2019-06-20T13:46:09.368Z,1006.78
2019-06-20T13:48:02.791Z,1006.77
2019-06-20T13:49:02.638Z,1006.79
2019-06-20T13:50:55.721Z,1006.73
2019-06-20T13:51:55.491Z,1006.71
2019-06-20T13:53:48.653Z,1006.74
2019-06-20T13:54:49.826Z,1006.82
2019-06-20T13:56:42.294Z,1006.77
2019-06-20T13:57:42.694Z,1006.78
2019-06-20T13:59:35.470Z,1006.82
2019-06-20T14:00:34.045Z,1006.82
2019-06-20T14:02:27.074Z,1006.83
2019-06-20T14:03:27.032Z,1006.81
2019-06-20T14:05:20.193Z,1006.89
2019-06-20T14:06:19.892Z,1006.88
2019-06-20T14:08:12.718Z,1006.91
2019-06-20T14:09:12.607Z,1006.87
2019-06-20T14:11:05.886Z,1006.79
2019-06-20T14:12:05.778Z,1006.78
2019-06-20T14:13:58.828Z,1006.73
2019-06-20T14:14:58.765Z,1006.72
2019-06-20T14:16:51.634Z,1006.69
2019-06-20T14:17:51.614Z,1006.71
2019-06-20T14:19:45.115Z,1006.71
2019-06-20T14:20:44.839Z,1006.73
2019-06-20T14:22:37.099Z,1006.78
2019-06-20T14:23:37.045Z,1006.78
2019-06-20T14:25:29.994Z,1006.76
2019-06-20T14:26:29.867Z,1006.76
2019-06-20T14:28:23.974Z,1006.78
2019-06-20T14:29:23.903Z,1006.81
2019-06-20T14:31:16.702Z,1006.81
2019-06-20T14:32:22.087Z,1006.81
2019-06-20T14:34:09.776Z,1006.82
2019-06-20T14:35:09.616Z,1006.87
2019-06-20T14:37:03.233Z,1006.85
2019-06-20T14:38:03.088Z,1006.92
2019-06-20T14:39:57.091Z,1006.84
2019-06-20T14:40:56.059Z,1006.83
2019-06-20T14:42:50.268Z,1006.77
2019-06-20T14:43:49.687Z,1006.75
2019-06-20T14:45:43.820Z,1006.68
2019-06-20T14:46:42.340Z,1006.66
2019-06-20T14:48:35.594Z,1006.63
2019-06-20T14:49:35.476Z,1006.64
2019-06-20T14:51:28.802Z,1006.70
2019-06-20T14:52:28.349Z,1006.74
2019-06-20T14:54:21.311Z,1006.73
2019-06-20T14:55:21.499Z,1006.73
2019-06-20T14:57:14.386Z,1006.71
2019-06-20T14:58:14.285Z,1006.72
2019-06-20T15:00:07.183Z,1006.70
2019-06-20T15:01:07.091Z,1006.64
